UWSG 160500Z 07002MPS 030V160 CAVOK 26/15 Q1015 R08/CLRD70 NOSIG RMK QFE758/1011
QNH:(hPa/inHg/mmHg)1015 / 29.97 / 761
QFE:(hPa/inHg/mmHg)1014 / 29.94 / 760
Temperature26
Dew Point15
Visibility> 10000
WeatherCAVOK
Cloud Cover
Transition Altitude3000 ft.
Transition LevelFL40
SQUAWK